createdAt,value
2023-05-16T00:01:48.332Z,19.70
2023-05-16T00:04:13.402Z,19.69
2023-05-16T00:06:38.411Z,19.63
2023-05-16T00:09:04.706Z,19.55
2023-05-16T00:11:29.835Z,19.48
2023-05-16T00:13:54.636Z,19.41
2023-05-16T00:16:30.237Z,19.34
2023-05-16T00:17:47.733Z,19.20
2023-05-16T00:20:19.147Z,19.21
2023-05-16T00:21:28.770Z,19.10
2023-05-16T00:23:55.118Z,19.12
2023-05-16T00:26:27.633Z,19.06
2023-05-16T00:28:52.419Z,18.99
2023-05-16T00:31:19.488Z,18.93
2023-05-16T00:33:51.277Z,18.86
2023-05-16T00:35:00.689Z,18.73
2023-05-16T00:37:25.405Z,18.80
2023-05-16T00:39:53.797Z,18.76
2023-05-16T00:42:20.824Z,18.72
2023-05-16T00:44:48.074Z,18.67
2023-05-16T00:45:58.221Z,18.54
2023-05-16T00:48:23.962Z,18.61
2023-05-16T00:50:50.664Z,18.57
2023-05-16T00:53:14.736Z,18.54
2023-05-16T00:55:42.708Z,18.51
2023-05-16T00:58:09.181Z,18.49
2023-05-16T01:00:59.855Z,18.48
2023-05-16T01:03:24.478Z,18.44
2023-05-16T01:05:51.609Z,18.43
2023-05-16T01:08:18.694Z,18.40
2023-05-16T01:13:49.180Z,18.35
2023-05-16T01:19:38.839Z,18.33
2023-05-16T01:25:47.705Z,18.22
2023-05-16T01:28:17.739Z,18.15
2023-05-16T01:30:41.739Z,18.09
2023-05-16T01:33:05.938Z,18.10
2023-05-16T01:35:32.813Z,18.08
2023-05-16T01:36:56.745Z,17.98
2023-05-16T01:39:34.433Z,18.03
2023-05-16T01:42:16.601Z,17.98
2023-05-16T01:44:59.625Z,17.95
2023-05-16T01:47:30.834Z,17.94
2023-05-16T01:51:34.736Z,17.90
2023-05-16T01:54:07.418Z,17.86
2023-05-16T01:56:39.827Z,17.84
2023-05-16T01:59:27.686Z,17.79
2023-05-16T02:01:55.718Z,17.76
2023-05-16T02:04:19.308Z,17.72
2023-05-16T02:06:44.549Z,17.66
2023-05-16T02:09:10.014Z,17.64
2023-05-16T02:11:38.880Z,17.61
2023-05-16T02:14:06.100Z,17.52
2023-05-16T02:16:31.313Z,17.46
2023-05-16T02:17:40.124Z,17.30
2023-05-16T02:20:08.813Z,17.33
2023-05-16T02:22:33.322Z,17.26
2023-05-16T02:23:45.708Z,17.13
2023-05-16T02:26:11.945Z,17.12
2023-05-16T02:28:35.915Z,17.07
2023-05-16T02:31:03.993Z,17.04
2023-05-16T02:33:29.286Z,16.98
2023-05-16T02:35:53.627Z,16.94
2023-05-16T02:40:51.763Z,16.92
2023-05-16T02:43:23.790Z,16.92
2023-05-16T02:45:49.665Z,16.92
2023-05-16T02:48:14.954Z,16.89
2023-05-16T02:50:40.674Z,16.89
2023-05-16T02:51:52.037Z,16.78
2023-05-16T02:54:18.851Z,16.86
2023-05-16T02:57:13.611Z,16.83
2023-05-16T02:59:38.869Z,16.84
2023-05-16T03:02:04.632Z,16.82
2023-05-16T03:04:32.314Z,16.84
2023-05-16T03:06:59.085Z,16.80
2023-05-16T03:09:25.205Z,16.79
2023-05-16T03:11:50.309Z,16.76
2023-05-16T03:14:16.622Z,16.73
2023-05-16T03:16:43.996Z,16.72
2023-05-16T03:19:07.821Z,16.70
2023-05-16T03:21:36.869Z,16.69
2023-05-16T03:24:04.825Z,16.67
2023-05-16T03:26:28.521Z,16.66
2023-05-16T03:28:52.426Z,16.66
2023-05-16T03:31:19.961Z,16.65
2023-05-16T03:33:46.326Z,16.72
2023-05-16T03:36:13.204Z,16.70
2023-05-16T03:38:39.119Z,16.67
2023-05-16T03:41:02.803Z,16.69
2023-05-16T03:43:30.031Z,16.69
2023-05-16T03:45:53.570Z,16.67
2023-05-16T03:48:21.160Z,16.66
2023-05-16T03:50:45.612Z,16.67
2023-05-16T03:53:11.753Z,16.68
2023-05-16T03:55:37.920Z,16.66
2023-05-16T03:58:03.576Z,16.65
2023-05-16T04:00:28.260Z,16.64
2023-05-16T04:02:53.229Z,16.61
2023-05-16T04:05:17.357Z,16.61
2023-05-16T04:07:42.853Z,16.62
2023-05-16T04:10:10.586Z,16.63
2023-05-16T04:12:39.419Z,16.66
2023-05-16T04:15:06.250Z,16.73
2023-05-16T04:17:31.598Z,16.77
2023-05-16T04:19:58.010Z,16.84
2023-05-16T04:22:42.982Z,16.90
2023-05-16T04:25:08.784Z,16.91
2023-05-16T04:26:18.294Z,16.81
2023-05-16T04:28:43.030Z,16.94
2023-05-16T04:31:08.458Z,16.95
2023-05-16T04:33:32.506Z,16.95
2023-05-16T04:35:59.131Z,16.98
2023-05-16T04:38:25.464Z,16.98
2023-05-16T04:40:53.334Z,17.02
2023-05-16T04:43:20.163Z,17.07
2023-05-16T04:45:45.067Z,17.16
2023-05-16T04:48:11.486Z,17.22
2023-05-16T04:50:36.609Z,17.28
2023-05-16T04:51:46.153Z,17.20
2023-05-16T04:54:10.296Z,17.33
2023-05-16T04:56:34.866Z,17.43
2023-05-16T04:58:58.796Z,17.55
2023-05-16T05:00:11.308Z,17.46
2023-05-16T05:01:23.092Z,17.50
2023-05-16T05:02:32.260Z,17.54
2023-05-16T05:04:57.282Z,17.68
2023-05-16T05:07:22.035Z,17.72
2023-05-16T05:08:31.087Z,17.63
2023-05-16T05:09:40.710Z,17.63
2023-05-16T05:10:50.750Z,17.63
2023-05-16T05:13:15.409Z,17.72
2023-05-16T05:15:40.030Z,17.75
2023-05-16T05:18:04.687Z,17.79
2023-05-16T05:19:15.080Z,17.69
2023-05-16T05:21:40.075Z,17.88
2023-05-16T05:22:50.727Z,17.80
2023-05-16T05:25:39.252Z,17.93
2023-05-16T05:28:05.121Z,17.98
2023-05-16T05:30:32.349Z,18.02
2023-05-16T05:31:41.826Z,17.93
2023-05-16T05:32:51.529Z,17.93
2023-05-16T05:34:00.837Z,17.95
2023-05-16T05:36:24.840Z,18.05
2023-05-16T05:38:48.746Z,18.06
2023-05-16T05:41:13.920Z,18.11
2023-05-16T05:43:38.328Z,18.16
2023-05-16T05:46:02.384Z,18.17
2023-05-16T05:48:28.173Z,18.21
2023-05-16T05:50:52.870Z,18.24
2023-05-16T05:53:16.932Z,18.29
2023-05-16T05:55:43.146Z,18.31
2023-05-16T05:56:52.982Z,18.23
2023-05-16T05:59:18.811Z,18.36
2023-05-16T06:01:44.653Z,18.37
2023-05-16T06:04:14.412Z,18.41
2023-05-16T06:06:40.330Z,18.40
2023-05-16T06:07:49.405Z,18.30
2023-05-16T06:10:17.217Z,18.43
2023-05-16T06:12:41.451Z,18.44
2023-05-16T06:15:09.974Z,18.46
2023-05-16T06:17:35.239Z,18.47
2023-05-16T06:20:00.735Z,18.48
2023-05-16T06:22:24.576Z,18.49
2023-05-16T06:24:48.686Z,18.49
2023-05-16T06:25:59.230Z,18.38
2023-05-16T06:27:09.557Z,18.40
2023-05-16T06:28:19.480Z,18.39
2023-05-16T06:30:42.938Z,18.46
2023-05-16T06:31:51.617Z,18.35
2023-05-16T06:33:01.169Z,18.35
2023-05-16T06:35:27.317Z,18.42
2023-05-16T06:37:52.255Z,18.39
2023-05-16T06:40:18.658Z,18.41
2023-05-16T06:42:42.595Z,18.44
2023-05-16T06:43:53.203Z,18.35
2023-05-16T06:46:17.456Z,18.45
2023-05-16T06:48:41.446Z,18.44
2023-05-16T06:51:06.441Z,18.45
2023-05-16T06:53:30.636Z,18.43
2023-05-16T06:55:55.287Z,18.44
2023-05-16T06:58:19.938Z,18.37
2023-05-16T07:00:43.961Z,18.34
2023-05-16T07:03:07.859Z,18.34
2023-05-16T07:04:18.011Z,18.21
2023-05-16T07:06:44.401Z,18.25
2023-05-16T07:09:11.763Z,18.17
2023-05-16T07:11:36.358Z,18.09
2023-05-16T07:12:46.223Z,17.98
2023-05-16T07:15:12.875Z,18.02
2023-05-16T07:16:22.310Z,17.89
2023-05-16T07:17:32.214Z,17.88
2023-05-16T07:19:56.895Z,18.00
2023-05-16T07:22:21.655Z,17.98
2023-05-16T07:23:30.926Z,17.85
2023-05-16T07:24:39.899Z,17.83
2023-05-16T07:27:04.655Z,17.93
2023-05-16T07:28:14.328Z,17.84
2023-05-16T07:29:23.656Z,17.87
2023-05-16T07:31:50.211Z,18.04
2023-05-16T07:34:16.956Z,18.12
2023-05-16T07:36:41.109Z,18.14
2023-05-16T07:39:05.328Z,18.15
2023-05-16T07:41:34.799Z,18.19
2023-05-16T07:44:01.001Z,18.23
2023-05-16T07:46:26.087Z,18.26
2023-05-16T07:47:35.598Z,18.17
2023-05-16T07:50:00.692Z,18.32
2023-05-16T07:52:25.528Z,18.33
2023-05-16T07:54:55.461Z,18.32
2023-05-16T07:57:22.736Z,18.35
2023-05-16T07:59:47.339Z,18.34
2023-05-16T08:02:13.196Z,18.33
2023-05-16T08:04:37.686Z,18.35
2023-05-16T08:07:05.510Z,18.35
2023-05-16T08:08:15.023Z,18.26
2023-05-16T08:10:38.589Z,18.38
2023-05-16T08:13:04.010Z,18.40
2023-05-16T08:14:13.856Z,18.32
2023-05-16T08:16:37.814Z,18.46
2023-05-16T08:17:47.799Z,18.35
2023-05-16T08:18:57.489Z,18.36
2023-05-16T08:21:23.872Z,18.48
2023-05-16T08:23:50.888Z,18.48
2023-05-16T08:25:01.054Z,18.38
2023-05-16T08:27:27.801Z,18.49
2023-05-16T08:28:36.708Z,18.39
2023-05-16T08:31:00.257Z,18.52
2023-05-16T08:32:12.474Z,18.44
2023-05-16T08:33:22.216Z,18.46
2023-05-16T08:34:49.927Z,18.47
2023-05-16T08:37:17.395Z,18.63
2023-05-16T08:39:42.703Z,18.67
2023-05-16T08:42:07.988Z,18.69
2023-05-16T08:44:33.437Z,18.69
2023-05-16T08:48:24.974Z,18.57
2023-05-16T08:51:02.631Z,18.49
2023-05-16T08:55:09.295Z,18.45
2023-05-16T08:57:25.494Z,18.45
2023-05-16T08:58:34.990Z,18.35
2023-05-16T09:01:03.347Z,18.43
2023-05-16T09:03:30.086Z,18.37
2023-05-16T09:04:41.951Z,18.28
2023-05-16T09:07:07.757Z,18.38
2023-05-16T09:09:32.470Z,18.34
2023-05-16T09:11:58.551Z,18.32
2023-05-16T09:14:23.369Z,18.34
2023-05-16T09:17:07.142Z,18.37
2023-05-16T09:18:17.519Z,18.27
2023-05-16T09:20:46.533Z,18.39
2023-05-16T09:21:56.606Z,18.29
2023-05-16T09:24:24.195Z,18.39
2023-05-16T09:26:49.249Z,18.44
2023-05-16T09:29:17.303Z,18.47
2023-05-16T09:31:50.645Z,18.50
2023-05-16T09:34:15.500Z,18.51
2023-05-16T09:35:42.552Z,18.43
2023-05-16T09:36:37.389Z,18.42
2023-05-16T09:37:48.282Z,18.43
2023-05-16T09:40:14.407Z,18.55
2023-05-16T09:42:40.393Z,18.58
2023-05-16T09:43:50.995Z,18.50
2023-05-16T09:46:20.841Z,18.64
2023-05-16T09:48:46.610Z,18.68
2023-05-16T09:51:13.955Z,18.75
2023-05-16T09:53:41.776Z,18.82
2023-05-16T09:56:11.104Z,18.89
2023-05-16T09:58:43.767Z,18.96
2023-05-16T09:59:52.643Z,18.88
2023-05-16T10:01:03.797Z,18.90
2023-05-16T10:02:12.985Z,18.93
2023-05-16T10:04:38.831Z,19.10
2023-05-16T10:05:47.797Z,19.02
2023-05-16T10:08:14.834Z,19.19
2023-05-16T10:09:25.349Z,19.12
2023-05-16T10:11:53.305Z,19.27
2023-05-16T10:14:21.681Z,19.37
2023-05-16T10:16:50.078Z,19.27
2023-05-16T10:18:00.233Z,19.21
2023-05-16T10:20:26.633Z,19.38
2023-05-16T10:22:56.453Z,19.34
2023-05-16T10:24:09.956Z,19.27
2023-05-16T10:26:56.802Z,19.30
2023-05-16T10:29:27.487Z,19.43
2023-05-16T10:32:16.202Z,19.46
2023-05-16T10:33:25.634Z,19.35
2023-05-16T10:35:52.338Z,19.40
2023-05-16T10:38:20.222Z,19.41
2023-05-16T10:40:48.089Z,19.47
2023-05-16T10:43:24.319Z,19.48
2023-05-16T10:45:55.690Z,19.56
2023-05-16T10:48:29.533Z,19.60
2023-05-16T10:50:56.821Z,19.62
2023-05-16T10:53:34.604Z,19.61
2023-05-16T10:56:05.531Z,19.55
2023-05-16T10:57:22.372Z,19.44
2023-05-16T10:58:41.454Z,19.42
2023-05-16T10:59:52.064Z,19.39
2023-05-16T11:01:14.477Z,19.37
2023-05-16T11:04:01.663Z,19.39
2023-05-16T11:05:12.893Z,19.27
2023-05-16T11:07:42.100Z,19.27
2023-05-16T11:10:30.727Z,19.17
2023-05-16T11:11:52.812Z,19.01
2023-05-16T11:14:47.038Z,19.06
2023-05-16T11:17:34.599Z,19.07
2023-05-16T11:20:11.208Z,19.03
2023-05-16T11:22:40.974Z,19.02
2023-05-16T11:25:43.339Z,19.05
2023-05-16T11:26:54.967Z,18.93
2023-05-16T11:29:20.625Z,19.00
2023-05-16T11:31:45.618Z,19.03
2023-05-16T11:34:11.152Z,19.05
2023-05-16T11:35:21.430Z,18.94
2023-05-16T11:37:46.656Z,19.07
2023-05-16T11:40:18.682Z,19.07
2023-05-16T11:42:49.904Z,19.02
2023-05-16T11:45:20.287Z,19.01
2023-05-16T11:47:51.361Z,19.03
2023-05-16T11:50:20.449Z,19.03
2023-05-16T11:54:09.616Z,19.03
2023-05-16T11:56:43.341Z,19.07
2023-05-16T11:59:11.162Z,19.06
2023-05-16T12:01:42.380Z,19.08
2023-05-16T12:05:35.530Z,19.11
2023-05-16T12:08:19.223Z,19.13
2023-05-16T12:10:49.899Z,19.11
2023-05-16T12:14:51.402Z,19.10
2023-05-16T12:17:21.980Z,19.09
2023-05-16T12:19:46.640Z,19.04
2023-05-16T12:22:20.513Z,19.04
2023-05-16T12:24:48.635Z,19.08
2023-05-16T12:27:12.996Z,19.08
2023-05-16T12:29:37.310Z,19.11
2023-05-16T12:32:05.407Z,19.14
2023-05-16T12:33:15.806Z,19.04
2023-05-16T12:35:46.794Z,19.18
2023-05-16T12:38:13.602Z,19.21
2023-05-16T12:40:39.649Z,19.22
2023-05-16T12:43:22.422Z,19.24
2023-05-16T12:45:57.907Z,19.29
2023-05-16T12:47:14.533Z,19.23
2023-05-16T12:50:01.826Z,19.32
2023-05-16T12:52:30.782Z,19.33
2023-05-16T12:55:05.649Z,19.38
2023-05-16T12:57:32.529Z,19.41
2023-05-16T12:59:58.569Z,19.46
2023-05-16T13:02:25.374Z,19.51
2023-05-16T13:03:36.486Z,19.43
2023-05-16T13:04:45.228Z,19.45
2023-05-16T13:07:08.704Z,19.58
2023-05-16T13:09:33.341Z,19.59
2023-05-16T13:11:58.691Z,19.62
2023-05-16T13:13:08.412Z,19.52
2023-05-16T13:15:32.866Z,19.63
2023-05-16T13:18:03.664Z,19.62
2023-05-16T13:20:28.898Z,19.62
2023-05-16T13:21:38.005Z,19.51
2023-05-16T13:24:02.819Z,19.65
2023-05-16T13:26:27.418Z,19.69
2023-05-16T13:28:52.785Z,19.67
2023-05-16T13:31:17.236Z,19.68
2023-05-16T13:33:43.323Z,19.64
2023-05-16T13:34:53.620Z,19.52
2023-05-16T13:36:02.658Z,19.50
2023-05-16T13:37:12.100Z,19.53
2023-05-16T13:39:37.607Z,19.66
2023-05-16T13:42:03.293Z,19.68
2023-05-16T13:44:29.972Z,19.69
2023-05-16T13:46:58.254Z,19.72
2023-05-16T13:49:23.759Z,19.71
2023-05-16T13:51:47.624Z,19.70
2023-05-16T13:54:12.405Z,19.67
2023-05-16T13:56:36.514Z,19.62
2023-05-16T13:59:06.975Z,19.54
2023-05-16T14:01:30.878Z,19.50
2023-05-16T14:02:41.652Z,19.39
2023-05-16T14:03:50.648Z,19.38
2023-05-16T14:05:01.627Z,19.41
2023-05-16T14:06:12.521Z,19.41
2023-05-16T14:08:36.313Z,19.50
2023-05-16T14:10:59.964Z,19.49
2023-05-16T14:13:24.132Z,19.50
2023-05-16T14:15:49.080Z,19.57
2023-05-16T14:18:14.657Z,19.57
2023-05-16T14:20:50.269Z,19.59
2023-05-16T14:21:59.923Z,19.46
2023-05-16T14:24:24.396Z,19.55
2023-05-16T14:26:48.213Z,19.54
2023-05-16T14:29:13.268Z,19.51
2023-05-16T14:31:38.058Z,19.47
2023-05-16T14:34:02.554Z,19.47
2023-05-16T14:36:26.920Z,19.52
2023-05-16T14:38:50.538Z,19.51
2023-05-16T14:41:16.979Z,19.52
2023-05-16T14:42:27.080Z,19.44
2023-05-16T14:44:53.385Z,19.52
2023-05-16T14:47:17.283Z,19.54
2023-05-16T14:49:41.602Z,19.55
2023-05-16T14:52:08.048Z,19.52
2023-05-16T14:54:31.926Z,19.52
2023-05-16T14:56:56.178Z,19.53
2023-05-16T14:59:20.504Z,19.49
2023-05-16T15:01:46.326Z,19.49
2023-05-16T15:04:11.419Z,19.51
2023-05-16T15:06:35.326Z,19.53
2023-05-16T15:09:11.672Z,19.54
2023-05-16T15:10:20.978Z,19.43
2023-05-16T15:12:46.081Z,19.62
2023-05-16T15:15:13.537Z,19.67
2023-05-16T15:17:39.437Z,19.73
2023-05-16T15:18:48.215Z,19.66
2023-05-16T15:19:57.673Z,19.68
2023-05-16T15:21:06.733Z,19.68
2023-05-16T15:23:31.618Z,19.75
2023-05-16T15:25:55.992Z,19.78
2023-05-16T15:28:22.586Z,19.75
2023-05-16T15:30:47.407Z,19.74
2023-05-16T15:33:12.147Z,19.75
2023-05-16T15:34:20.834Z,19.68
2023-05-16T15:35:30.621Z,19.69
2023-05-16T15:36:41.126Z,19.70
2023-05-16T15:39:07.762Z,19.84
2023-05-16T15:44:02.076Z,19.79
2023-05-16T15:46:30.903Z,19.78
2023-05-16T15:47:41.551Z,19.63
2023-05-16T15:50:07.516Z,19.74
2023-05-16T15:52:32.416Z,19.72
2023-05-16T15:53:41.573Z,19.63
2023-05-16T15:56:06.821Z,19.74
2023-05-16T15:58:32.270Z,19.74
2023-05-16T16:00:56.720Z,19.73
2023-05-16T16:03:21.648Z,19.72
2023-05-16T16:05:47.602Z,19.71
2023-05-16T16:08:11.359Z,19.71
2023-05-16T16:10:56.083Z,19.69
2023-05-16T16:13:22.319Z,19.72
2023-05-16T16:15:55.463Z,19.76
2023-05-16T16:18:21.918Z,19.77
2023-05-16T16:20:49.661Z,19.76
2023-05-16T16:23:13.657Z,19.80
2023-05-16T16:25:39.789Z,19.79
2023-05-16T16:28:03.982Z,19.78
2023-05-16T16:30:27.784Z,19.74
2023-05-16T16:32:52.594Z,19.73
2023-05-16T16:34:01.856Z,19.61
2023-05-16T16:36:26.243Z,19.71
2023-05-16T16:38:51.510Z,19.72
2023-05-16T16:41:16.076Z,19.68
2023-05-16T16:42:26.696Z,19.59
2023-05-16T16:43:39.632Z,19.59
2023-05-16T16:44:48.633Z,19.59
2023-05-16T16:45:57.821Z,19.59
2023-05-16T16:48:23.826Z,19.71
2023-05-16T16:51:06.998Z,19.74
2023-05-16T16:53:31.948Z,19.78
2023-05-16T16:54:41.807Z,19.70
2023-05-16T16:57:06.342Z,19.82
2023-05-16T16:58:15.511Z,19.71
2023-05-16T17:00:40.376Z,19.83
2023-05-16T17:03:08.346Z,19.84
2023-05-16T17:05:32.098Z,19.84
2023-05-16T17:07:57.215Z,19.85
2023-05-16T17:09:06.499Z,19.76
2023-05-16T17:11:31.189Z,19.86
2023-05-16T17:13:59.453Z,19.87
2023-05-16T17:16:24.684Z,19.90
2023-05-16T17:17:34.246Z,19.80
2023-05-16T17:19:58.948Z,19.90
2023-05-16T17:22:24.062Z,19.92
2023-05-16T17:23:33.171Z,19.81
2023-05-16T17:25:57.153Z,19.87
2023-05-16T17:28:21.867Z,19.86
2023-05-16T17:30:46.529Z,19.84
2023-05-16T17:31:56.483Z,19.72
2023-05-16T17:33:06.031Z,19.72
2023-05-16T17:34:15.271Z,19.69
2023-05-16T17:35:25.304Z,19.66
2023-05-16T17:37:51.860Z,19.73
2023-05-16T17:40:18.354Z,19.65
2023-05-16T17:42:44.339Z,19.67
2023-05-16T17:43:54.211Z,19.57
2023-05-16T17:46:20.197Z,19.64
2023-05-16T17:48:44.743Z,19.62
2023-05-16T17:51:09.111Z,19.61
2023-05-16T17:52:21.562Z,19.50
2023-05-16T17:53:30.131Z,19.51
2023-05-16T17:54:38.871Z,19.51
2023-05-16T17:55:49.177Z,19.50
2023-05-16T17:58:15.428Z,19.59
2023-05-16T18:00:42.046Z,19.59
2023-05-16T18:01:51.771Z,19.49
2023-05-16T18:03:01.574Z,19.48
2023-05-16T18:05:25.177Z,19.56
2023-05-16T18:07:53.860Z,19.54
2023-05-16T18:10:21.014Z,19.56
2023-05-16T18:12:45.989Z,19.56
2023-05-16T18:13:54.936Z,19.45
2023-05-16T18:15:05.314Z,19.44
2023-05-16T18:17:29.212Z,19.52
2023-05-16T18:19:53.949Z,19.53
2023-05-16T18:21:05.273Z,19.44
2023-05-16T18:22:14.934Z,19.43
2023-05-16T18:24:39.767Z,19.55
2023-05-16T18:27:04.640Z,19.52
2023-05-16T18:29:29.698Z,19.50
2023-05-16T18:31:56.765Z,19.49
2023-05-16T18:34:21.438Z,19.50
2023-05-16T18:35:30.643Z,19.38
2023-05-16T18:37:55.064Z,19.48
2023-05-16T18:40:19.311Z,19.46
2023-05-16T18:42:45.123Z,19.44
2023-05-16T18:45:09.673Z,19.41
2023-05-16T18:47:33.848Z,19.39
2023-05-16T18:49:59.852Z,19.38
2023-05-16T18:51:09.572Z,19.24
2023-05-16T18:52:19.337Z,19.24
2023-05-16T18:53:28.005Z,19.23
2023-05-16T18:54:38.355Z,19.19
2023-05-16T18:57:06.340Z,19.26
2023-05-16T18:59:31.976Z,19.22
2023-05-16T19:01:56.095Z,19.17
2023-05-16T19:03:05.199Z,19.05
2023-05-16T19:05:29.565Z,19.13
2023-05-16T19:06:39.810Z,19.02
2023-05-16T19:09:03.807Z,19.10
2023-05-16T19:11:29.291Z,19.05
2023-05-16T19:12:38.892Z,18.94
2023-05-16T19:15:02.616Z,19.01
2023-05-16T19:17:26.818Z,18.96
2023-05-16T19:19:52.569Z,18.93
2023-05-16T19:22:16.424Z,18.91
2023-05-16T19:24:40.071Z,18.86
2023-05-16T19:27:04.477Z,18.84
2023-05-16T19:29:30.094Z,18.83
2023-05-16T19:30:40.172Z,18.72
2023-05-16T19:31:48.953Z,18.70
2023-05-16T19:34:14.184Z,18.77
2023-05-16T19:36:38.108Z,18.74
2023-05-16T19:39:02.488Z,18.73
2023-05-16T19:41:27.421Z,18.68
2023-05-16T19:42:37.454Z,18.56
2023-05-16T19:43:46.594Z,18.53
2023-05-16T19:46:10.801Z,18.61
2023-05-16T19:48:36.132Z,18.56
2023-05-16T19:51:00.958Z,18.51
2023-05-16T19:53:28.007Z,18.50
2023-05-16T19:55:53.298Z,18.48
2023-05-16T19:57:02.835Z,18.37
2023-05-16T19:59:26.557Z,18.45
2023-05-16T20:01:53.103Z,18.43
2023-05-16T20:04:17.860Z,18.42
2023-05-16T20:06:41.899Z,18.41
2023-05-16T20:09:10.803Z,18.38
2023-05-16T20:10:21.920Z,18.26
2023-05-16T20:12:45.516Z,18.34
2023-05-16T20:15:12.112Z,18.34
2023-05-16T20:17:36.935Z,18.36
2023-05-16T20:20:01.498Z,18.35
2023-05-16T20:22:26.410Z,18.36
2023-05-16T20:24:52.342Z,18.37
2023-05-16T20:27:17.148Z,18.35
2023-05-16T20:29:41.575Z,18.36
2023-05-16T20:32:06.504Z,18.35
2023-05-16T20:34:33.413Z,18.32
2023-05-16T20:36:58.585Z,18.30
2023-05-16T20:39:23.774Z,18.29
2023-05-16T20:41:48.888Z,18.25
2023-05-16T20:44:15.056Z,18.20
2023-05-16T20:46:41.717Z,18.18
2023-05-16T20:49:06.635Z,18.19
2023-05-16T20:51:32.813Z,18.17
2023-05-16T20:53:56.318Z,18.15
2023-05-16T20:56:21.967Z,18.15
2023-05-16T20:57:43.698Z,18.04
2023-05-16T20:58:52.645Z,18.04
2023-05-16T21:01:17.197Z,18.14
2023-05-16T21:02:27.920Z,17.98
2023-05-16T21:04:52.835Z,18.06
2023-05-16T21:07:17.297Z,18.06
2023-05-16T21:09:44.117Z,18.02
2023-05-16T21:12:10.115Z,18.03
2023-05-16T21:14:34.607Z,18.00
2023-05-16T21:16:58.039Z,18.00
2023-05-16T21:19:23.437Z,18.00
2023-05-16T21:21:47.246Z,18.02
2023-05-16T21:22:56.367Z,17.93
2023-05-16T21:24:06.827Z,17.95
2023-05-16T21:26:32.766Z,18.03
2023-05-16T21:28:57.150Z,18.02
2023-05-16T21:31:23.668Z,18.01
2023-05-16T21:32:33.322Z,17.92
2023-05-16T21:35:00.536Z,18.02
2023-05-16T21:36:09.421Z,17.92
2023-05-16T21:37:18.380Z,17.92
2023-05-16T21:39:42.151Z,18.00
2023-05-16T21:42:10.646Z,18.00
2023-05-16T21:44:35.248Z,18.01
2023-05-16T21:45:44.405Z,17.89
2023-05-16T21:46:54.918Z,17.90
2023-05-16T21:48:03.933Z,17.90
2023-05-16T21:50:28.115Z,18.01
2023-05-16T21:52:53.357Z,18.03
2023-05-16T21:54:03.616Z,17.93
2023-05-16T21:55:13.918Z,17.94
2023-05-16T21:56:27.391Z,17.94
2023-05-16T21:58:51.303Z,18.02
2023-05-16T22:01:17.334Z,18.01
2023-05-16T22:02:27.002Z,17.90
2023-05-16T22:04:52.266Z,18.02
2023-05-16T22:06:01.810Z,17.93
2023-05-16T22:07:11.827Z,17.93
2023-05-16T22:09:36.245Z,18.04
2023-05-16T22:12:00.617Z,18.04
2023-05-16T22:13:10.996Z,17.93
2023-05-16T22:14:22.211Z,17.94
2023-05-16T22:15:31.356Z,17.94
2023-05-16T22:17:58.020Z,18.04
2023-05-16T22:20:23.599Z,18.03
2023-05-16T22:21:32.674Z,17.93
2023-05-16T22:22:41.551Z,17.93
2023-05-16T22:25:09.750Z,17.99
2023-05-16T22:27:38.800Z,17.98
2023-05-16T22:30:04.308Z,17.96
2023-05-16T22:32:29.232Z,17.93
2023-05-16T22:33:38.304Z,17.82
2023-05-16T22:34:47.599Z,17.82
2023-05-16T22:35:56.176Z,17.82
2023-05-16T22:38:23.498Z,17.87
2023-05-16T22:40:48.915Z,17.84
2023-05-16T22:43:16.534Z,17.83
2023-05-16T22:44:25.993Z,17.73
2023-05-16T22:46:49.286Z,17.85
2023-05-16T22:47:58.506Z,17.75
2023-05-16T22:50:22.414Z,17.84
2023-05-16T22:52:48.159Z,17.84
2023-05-16T22:53:57.879Z,17.73
2023-05-16T22:56:24.482Z,17.86
2023-05-16T22:57:35.113Z,17.76
2023-05-16T22:58:44.503Z,17.75
2023-05-16T23:01:08.514Z,17.85
2023-05-16T23:02:17.876Z,17.75
2023-05-16T23:04:44.943Z,17.84
2023-05-16T23:07:10.438Z,17.84
2023-05-16T23:08:22.213Z,17.72
2023-05-16T23:10:45.645Z,17.82
2023-05-16T23:13:10.289Z,17.81
2023-05-16T23:15:34.778Z,17.77
2023-05-16T23:16:43.678Z,17.66
2023-05-16T23:19:09.384Z,17.78
2023-05-16T23:20:18.365Z,17.67
2023-05-16T23:21:28.057Z,17.67
2023-05-16T23:22:37.689Z,17.68
2023-05-16T23:25:02.911Z,17.80
2023-05-16T23:27:29.029Z,17.78
2023-05-16T23:29:52.935Z,17.78
2023-05-16T23:32:39.705Z,17.78
2023-05-16T23:35:05.323Z,17.77
2023-05-16T23:36:14.576Z,17.66
2023-05-16T23:38:45.073Z,17.74
2023-05-16T23:41:28.606Z,17.75
2023-05-16T23:43:54.782Z,17.73
2023-05-16T23:46:19.432Z,17.72
2023-05-16T23:47:28.888Z,17.63
2023-05-16T23:48:40.514Z,17.62
2023-05-16T23:49:49.502Z,17.62
2023-05-16T23:52:13.805Z,17.72
2023-05-16T23:54:41.061Z,17.73
2023-05-16T23:57:05.527Z,17.76
2023-05-16T23:58:14.542Z,17.65
